Time;durP1;ratioP1;P1;durP2;ratioP2;P2;SDS_P1;SDS_P2;PMS_P1;PMS_P2;Temp;Humidity;BMP_temperature;BMP_pressure;BME280_temperature;BME280_humidity;BME280_pressure;Samples;Min_cycle;Max_cycle;Signal;HPM_P1;HPM_P2
2021/07/16 00:00:46;;;;;;;2.05;1.00;;;;;;;;;;1484612;40;20033;-58
2021/07/16 00:01:47;;;;;;;2.92;1.10;;;;;;;;;;1484504;40;20392;-58
2021/07/16 00:02:51;;;;;;;2.72;1.10;;;;;;;;;;1484539;40;20031;-58
2021/07/16 00:03:51;;;;;;;2.35;1.00;;;;;;;;;;1484524;40;20041;-58
2021/07/16 00:04:53;;;;;;;2.83;1.20;;;;;;;;;;1484553;40;20025;-58
2021/07/16 00:05:54;;;;;;;4.03;1.40;;;;;;;;;;1484599;40;20036;-58
2021/07/16 00:06:56;;;;;;;3.88;1.35;;;;;;;;;;1484588;40;20298;-58
2021/07/16 00:07:57;;;;;;;2.42;1.05;;;;;;;;;;1484456;40;20412;-58
2021/07/16 00:08:58;;;;;;;4.35;1.00;;;;;;;;;;1484464;40;20029;-59
2021/07/16 00:09:59;;;;;;;3.22;1.25;;;;;;;;;;1484528;40;20021;-58
2021/07/16 00:11:01;;;;;;;2.92;1.00;;;;;;;;;;1484407;40;20400;-58
2021/07/16 00:12:02;;;;;;;3.80;1.00;;;;;;;;;;1484388;40;20025;-58
2021/07/16 00:13:06;;;;;;;2.58;1.23;;;;;;;;;;1484361;40;20415;-58
2021/07/16 00:14:07;;;;;;;3.83;1.33;;;;;;;;;;1484592;40;20032;-58
2021/07/16 00:15:11;;;;;;;5.32;1.40;;;;;;;;;;1484512;40;20107;-58
2021/07/16 00:16:13;;;;;;;5.07;1.30;;;;;;;;;;1484400;40;20021;-58
2021/07/16 00:17:15;;;;;;;6.47;1.50;;;;;;;;;;1484511;40;20029;-58
2021/07/16 00:18:15;;;;;;;2.72;1.10;;;;;;;;;;1484369;40;20389;-59
2021/07/16 00:19:17;;;;;;;3.20;0.90;;;;;;;;;;1484525;40;20025;-58
2021/07/16 00:20:22;;;;;;;2.28;1.05;;;;;;;;;;1484553;40;20028;-58
2021/07/16 00:21:24;;;;;;;2.20;1.10;;;;;;;;;;1484561;40;20029;-58
2021/07/16 00:22:26;;;;;;;3.55;1.00;;;;;;;;;;1484420;40;20051;-58
2021/07/16 00:23:28;;;;;;;2.35;1.13;;;;;;;;;;1484566;40;20021;-58
2021/07/16 00:24:29;;;;;;;1.80;1.00;;;;;;;;;;1484553;40;20025;-58
2021/07/16 00:25:40;;;;;;;2.57;1.20;;;;;;;;;;1484600;40;20032;-58
2021/07/16 00:26:41;;;;;;;2.42;1.15;;;;;;;;;;1484316;40;20239;-58
2021/07/16 00:27:44;;;;;;;3.15;1.20;;;;;;;;;;1484826;40;20032;-58
2021/07/16 00:28:45;;;;;;;2.47;1.00;;;;;;;;;;1485063;40;20056;-58
2021/07/16 00:29:46;;;;;;;2.28;1.35;;;;;;;;;;1485236;40;20044;-58
2021/07/16 00:30:48;;;;;;;2.60;1.02;;;;;;;;;;1485031;40;20032;-58
2021/07/16 00:31:51;;;;;;;2.45;1.00;;;;;;;;;;1485228;40;20025;-58
2021/07/16 00:32:52;;;;;;;2.78;1.20;;;;;;;;;;1485108;40;20031;-58
2021/07/16 00:33:54;;;;;;;1.92;1.00;;;;;;;;;;1485162;40;20025;-58
2021/07/16 00:34:55;;;;;;;4.22;1.30;;;;;;;;;;1485027;40;20028;-58
2021/07/16 00:35:56;;;;;;;2.25;1.02;;;;;;;;;;1485025;40;20270;-58
2021/07/16 00:37:02;;;;;;;4.00;1.05;;;;;;;;;;1485047;40;20370;-59
2021/07/16 00:38:04;;;;;;;2.38;1.05;;;;;;;;;;1485441;40;20031;-60
2021/07/16 00:39:05;;;;;;;2.95;1.20;;;;;;;;;;1485063;40;20021;-61
2021/07/16 00:40:10;;;;;;;1.88;1.00;;;;;;;;;;1485115;40;20024;-62
2021/07/16 00:41:11;;;;;;;2.13;1.00;;;;;;;;;;1485260;40;20036;-61
2021/07/16 00:42:13;;;;;;;2.00;1.00;;;;;;;;;;1485150;40;20025;-61
2021/07/16 00:43:14;;;;;;;1.77;0.90;;;;;;;;;;1485028;40;20323;-61
2021/07/16 00:44:19;;;;;;;2.25;1.10;;;;;;;;;;1484998;40;20028;-61
2021/07/16 00:45:19;;;;;;;2.85;1.13;;;;;;;;;;1484942;40;20025;-60
2021/07/16 00:46:21;;;;;;;2.35;0.95;;;;;;;;;;1485051;40;20029;-61
2021/07/16 00:47:24;;;;;;;2.83;1.10;;;;;;;;;;1484947;40;20032;-61
2021/07/16 00:48:26;;;;;;;2.30;0.85;;;;;;;;;;1485080;40;20036;-60
2021/07/16 00:49:28;;;;;;;1.77;0.90;;;;;;;;;;1485019;40;20385;-62
2021/07/16 00:50:33;;;;;;;2.15;1.00;;;;;;;;;;1484887;40;20029;-61
2021/07/16 00:51:34;;;;;;;1.90;1.10;;;;;;;;;;1484980;40;20029;-61
2021/07/16 00:52:36;;;;;;;1.80;0.90;;;;;;;;;;1484943;40;20032;-61
2021/07/16 00:53:38;;;;;;;1.65;0.77;;;;;;;;;;1484912;40;20109;-61
2021/07/16 00:54:40;;;;;;;2.13;1.00;;;;;;;;;;1484981;40;20025;-62
2021/07/16 00:55:41;;;;;;;2.92;1.00;;;;;;;;;;1484425;40;20025;-61
2021/07/16 00:56:43;;;;;;;1.88;1.02;;;;;;;;;;1484706;40;20029;-61
2021/07/16 00:57:45;;;;;;;2.53;1.23;;;;;;;;;;1485000;40;20021;-61
2021/07/16 00:58:47;;;;;;;2.80;1.08;;;;;;;;;;1484892;40;20021;-62
2021/07/16 00:59:48;;;;;;;3.55;1.00;;;;;;;;;;1484909;40;20031;-60
2021/07/16 01:00:50;;;;;;;2.30;1.00;;;;;;;;;;1485005;40;20033;-61
2021/07/16 01:01:51;;;;;;;4.18;1.23;;;;;;;;;;1484955;40;20032;-61
2021/07/16 01:02:54;;;;;;;3.75;1.10;;;;;;;;;;1485160;40;20385;-61
2021/07/16 01:03:55;;;;;;;3.47;1.08;;;;;;;;;;1485012;40;20029;-61
2021/07/16 01:04:57;;;;;;;3.45;1.15;;;;;;;;;;1484942;40;20266;-61
2021/07/16 01:06:00;;;;;;;3.28;1.05;;;;;;;;;;1484967;40;20029;-61
2021/07/16 01:07:03;;;;;;;2.22;1.05;;;;;;;;;;1484991;40;20359;-60
2021/07/16 01:08:04;;;;;;;4.57;0.90;;;;;;;;;;1484852;40;20376;-61
2021/07/16 01:09:06;;;;;;;2.60;1.02;;;;;;;;;;1485025;40;20389;-61
2021/07/16 01:10:09;;;;;;;2.50;1.17;;;;;;;;;;1484819;40;20032;-61
2021/07/16 01:11:11;;;;;;;3.63;1.27;;;;;;;;;;1485128;40;20040;-61
2021/07/16 01:12:12;;;;;;;2.05;1.00;;;;;;;;;;1485002;40;20297;-62
2021/07/16 01:13:14;;;;;;;2.88;0.93;;;;;;;;;;1485083;40;20025;-62
2021/07/16 01:14:16;;;;;;;3.35;1.08;;;;;;;;;;1484847;40;20025;-61
2021/07/16 01:15:19;;;;;;;3.17;1.15;;;;;;;;;;1485039;40;20039;-61
2021/07/16 01:16:19;;;;;;;2.15;0.98;;;;;;;;;;1484970;40;20389;-61
2021/07/16 01:17:21;;;;;;;2.30;0.90;;;;;;;;;;1485281;40;20035;-61
2021/07/16 01:18:24;;;;;;;1.98;1.02;;;;;;;;;;1484934;40;20032;-62
2021/07/16 01:19:35;;;;;;;1.98;1.00;;;;;;;;;;1485017;40;20286;-61
2021/07/16 01:20:37;;;;;;;2.78;0.90;;;;;;;;;;1484829;40;20048;-61
2021/07/16 01:21:39;;;;;;;2.40;1.10;;;;;;;;;;1485177;40;20029;-61
2021/07/16 01:22:42;;;;;;;2.47;1.00;;;;;;;;;;1484331;40;20017;-61
2021/07/16 01:23:45;;;;;;;4.30;1.20;;;;;;;;;;1484371;40;20021;-61
2021/07/16 01:24:47;;;;;;;2.65;1.10;;;;;;;;;;1484939;40;20028;-61
2021/07/16 01:25:49;;;;;;;2.17;1.08;;;;;;;;;;1484480;40;20099;-61
2021/07/16 01:26:51;;;;;;;2.72;1.10;;;;;;;;;;1484461;40;20025;-61
2021/07/16 01:27:55;;;;;;;1.73;0.95;;;;;;;;;;1485007;40;20047;-62
2021/07/16 01:28:57;;;;;;;3.55;1.10;;;;;;;;;;1484816;40;20292;-62
2021/07/16 01:30:00;;;;;;;1.77;1.00;;;;;;;;;;1484950;40;20021;-62
2021/07/16 01:31:01;;;;;;;3.10;1.13;;;;;;;;;;1484876;40;20037;-62
2021/07/16 01:32:03;;;;;;;1.58;0.80;;;;;;;;;;1484913;40;20024;-61
2021/07/16 01:33:05;;;;;;;3.60;1.10;;;;;;;;;;1484891;40;20032;-61
2021/07/16 01:34:07;;;;;;;2.13;0.98;;;;;;;;;;1485011;40;20021;-61
2021/07/16 01:35:10;;;;;;;2.95;1.20;;;;;;;;;;1484907;40;20020;-61
2021/07/16 01:36:12;;;;;;;2.08;1.23;;;;;;;;;;1484878;40;20388;-61
2021/07/16 01:37:14;;;;;;;2.42;1.00;;;;;;;;;;1484938;40;20028;-61
2021/07/16 01:38:16;;;;;;;1.77;1.08;;;;;;;;;;1485010;40;20407;-61
2021/07/16 01:39:18;;;;;;;4.25;1.52;;;;;;;;;;1484538;40;20025;-61
2021/07/16 01:40:22;;;;;;;2.15;1.13;;;;;;;;;;1485200;40;20025;-61
2021/07/16 01:41:22;;;;;;;2.45;1.20;;;;;;;;;;1484340;40;20033;-61
2021/07/16 01:42:24;;;;;;;2.40;0.90;;;;;;;;;;1484449;40;20037;-61
2021/07/16 01:43:26;;;;;;;1.80;0.90;;;;;;;;;;1484837;40;20029;-61
2021/07/16 01:44:27;;;;;;;2.45;1.20;;;;;;;;;;1484866;40;20035;-61
2021/07/16 01:45:31;;;;;;;4.35;1.45;;;;;;;;;;1484808;40;20051;-61
2021/07/16 01:46:33;;;;;;;3.35;1.17;;;;;;;;;;1484924;40;20025;-61
2021/07/16 01:47:34;;;;;;;3.30;1.30;;;;;;;;;;1484869;40;20028;-61
2021/07/16 01:48:36;;;;;;;3.30;0.95;;;;;;;;;;1484988;40;20021;-61
2021/07/16 01:49:37;;;;;;;2.53;1.17;;;;;;;;;;1484853;40;20029;-62
2021/07/16 01:50:42;;;;;;;4.60;1.30;;;;;;;;;;1484693;40;20029;-61
2021/07/16 01:51:43;;;;;;;2.53;1.00;;;;;;;;;;1484516;40;20072;-61
2021/07/16 01:52:46;;;;;;;3.58;1.20;;;;;;;;;;1484495;40;20510;-61
2021/07/16 01:53:47;;;;;;;4.30;1.20;;;;;;;;;;1484794;40;20389;-61
2021/07/16 01:54:50;;;;;;;3.08;1.20;;;;;;;;;;1485021;40;20064;-61
2021/07/16 01:55:51;;;;;;;2.72;1.00;;;;;;;;;;1484786;40;20035;-61
2021/07/16 01:56:53;;;;;;;3.45;1.20;;;;;;;;;;1484906;40;20032;-61
2021/07/16 01:57:56;;;;;;;4.10;1.00;;;;;;;;;;1484824;40;20393;-61
2021/07/16 01:58:58;;;;;;;3.20;1.10;;;;;;;;;;1484880;40;20021;-61
2021/07/16 01:59:59;;;;;;;3.28;1.17;;;;;;;;;;1484986;40;20032;-61
2021/07/16 02:01:01;;;;;;;3.03;1.25;;;;;;;;;;1484816;40;20385;-61
2021/07/16 02:02:03;;;;;;;3.65;1.10;;;;;;;;;;1484836;40;20025;-61
2021/07/16 02:03:06;;;;;;;3.45;1.10;;;;;;;;;;1484861;40;20040;-60
2021/07/16 02:04:07;;;;;;;2.67;1.10;;;;;;;;;;1484848;40;20405;-62
2021/07/16 02:05:10;;;;;;;6.25;1.40;;;;;;;;;;1484945;40;20025;-61
2021/07/16 02:06:12;;;;;;;6.18;1.17;;;;;;;;;;1484805;40;20021;-62
2021/07/16 02:07:13;;;;;;;4.65;1.40;;;;;;;;;;1484727;40;20363;-61
2021/07/16 02:08:17;;;;;;;3.97;1.00;;;;;;;;;;1484954;40;20025;-61
2021/07/16 02:09:18;;;;;;;3.38;1.17;;;;;;;;;;1484847;40;20404;-61
2021/07/16 02:10:25;;;;;;;6.13;1.35;;;;;;;;;;1484938;40;20061;-61
2021/07/16 02:11:26;;;;;;;2.80;1.27;;;;;;;;;;1485055;40;20059;-61
2021/07/16 02:12:28;;;;;;;3.33;1.20;;;;;;;;;;1484944;40;20369;-61
2021/07/16 02:13:29;;;;;;;4.65;1.10;;;;;;;;;;1484741;40;20266;-61
2021/07/16 02:14:31;;;;;;;3.17;1.20;;;;;;;;;;1484877;40;20033;-61
2021/07/16 02:15:33;;;;;;;4.15;1.23;;;;;;;;;;1484885;40;20028;-61
2021/07/16 02:16:35;;;;;;;4.10;1.20;;;;;;;;;;1484781;40;20025;-61
2021/07/16 02:17:36;;;;;;;3.20;1.15;;;;;;;;;;1484915;40;20033;-61
2021/07/16 02:18:37;;;;;;;3.72;1.13;;;;;;;;;;1484762;40;20032;-60
2021/07/16 02:19:38;;;;;;;3.28;1.30;;;;;;;;;;1484705;40;20021;-61
2021/07/16 02:20:42;;;;;;;2.78;1.27;;;;;;;;;;1484941;40;20065;-61
2021/07/16 02:21:43;;;;;;;2.85;1.10;;;;;;;;;;1484814;40;20021;-61
2021/07/16 02:22:44;;;;;;;3.40;1.20;;;;;;;;;;1484872;40;20035;-61
2021/07/16 02:23:48;;;;;;;3.78;1.58;;;;;;;;;;1484863;40;20021;-61
2021/07/16 02:24:48;;;;;;;2.60;1.25;;;;;;;;;;1484692;40;20024;-61
2021/07/16 02:25:52;;;;;;;3.53;1.13;;;;;;;;;;1484799;40;20032;-62
2021/07/16 02:26:53;;;;;;;5.32;1.33;;;;;;;;;;1484690;40;20028;-61
2021/07/16 02:27:56;;;;;;;2.30;1.05;;;;;;;;;;1485036;40;20024;-61
2021/07/16 02:28:57;;;;;;;3.95;1.20;;;;;;;;;;1484842;40;20025;-61
2021/07/16 02:29:59;;;;;;;7.80;1.40;;;;;;;;;;1484908;40;20381;-61
2021/07/16 02:31:01;;;;;;;4.13;1.17;;;;;;;;;;1484708;40;20103;-61
2021/07/16 02:32:04;;;;;;;3.95;1.30;;;;;;;;;;1484923;40;20025;-61
2021/07/16 02:33:05;;;;;;;4.55;1.30;;;;;;;;;;1484651;40;20031;-61
2021/07/16 02:34:08;;;;;;;4.25;1.20;;;;;;;;;;1484292;40;20052;-61
2021/07/16 02:35:10;;;;;;;7.50;1.58;;;;;;;;;;1484452;40;20021;-61
2021/07/16 02:36:12;;;;;;;9.18;1.25;;;;;;;;;;1484826;40;20031;-61
2021/07/16 02:37:12;;;;;;;5.72;1.40;;;;;;;;;;1484300;40;20028;-61
2021/07/16 02:38:15;;;;;;;4.68;1.17;;;;;;;;;;1484191;40;20408;-61
2021/07/16 02:39:16;;;;;;;3.70;1.10;;;;;;;;;;1484755;40;20032;-61
2021/07/16 02:40:19;;;;;;;3.75;1.20;;;;;;;;;;1484712;40;20029;-61
2021/07/16 02:41:21;;;;;;;4.68;1.25;;;;;;;;;;1484689;40;20051;-61
2021/07/16 02:42:22;;;;;;;2.60;1.30;;;;;;;;;;1484784;40;20036;-61
2021/07/16 02:43:25;;;;;;;4.55;1.30;;;;;;;;;;1484662;40;20025;-61
2021/07/16 02:44:26;;;;;;;4.63;1.33;;;;;;;;;;1484083;40;20021;-61
2021/07/16 02:45:28;;;;;;;2.45;1.20;;;;;;;;;;1484391;40;20032;-61
2021/07/16 02:46:29;;;;;;;3.35;1.38;;;;;;;;;;1484720;40;20265;-61
2021/07/16 02:47:30;;;;;;;2.95;1.00;;;;;;;;;;1484814;40;20036;-62
2021/07/16 02:48:31;;;;;;;3.35;1.10;;;;;;;;;;1484558;40;20025;-60
2021/07/16 02:49:33;;;;;;;3.47;1.15;;;;;;;;;;1484906;40;20285;-61
2021/07/16 02:50:36;;;;;;;4.28;1.20;;;;;;;;;;1484526;40;20021;-60
2021/07/16 02:51:37;;;;;;;2.63;1.23;;;;;;;;;;1484354;40;20029;-61
2021/07/16 02:52:39;;;;;;;4.40;1.30;;;;;;;;;;1484609;40;20407;-61
2021/07/16 02:53:40;;;;;;;3.25;1.30;;;;;;;;;;1484853;40;20057;-61
2021/07/16 02:54:41;;;;;;;2.92;1.10;;;;;;;;;;1484628;40;20028;-61
2021/07/16 02:55:44;;;;;;;3.33;1.13;;;;;;;;;;1484756;40;20017;-61
2021/07/16 02:56:46;;;;;;;5.95;1.20;;;;;;;;;;1484651;40;20034;-61
2021/07/16 02:57:48;;;;;;;2.45;0.93;;;;;;;;;;1484666;40;20036;-62
2021/07/16 02:58:49;;;;;;;3.55;1.23;;;;;;;;;;1484679;40;20025;-61
2021/07/16 02:59:51;;;;;;;2.83;1.10;;;;;;;;;;1484604;40;20028;-61
2021/07/16 03:00:52;;;;;;;3.38;1.23;;;;;;;;;;1484558;40;20029;-61
2021/07/16 03:01:54;;;;;;;3.40;0.90;;;;;;;;;;1484712;40;20036;-62
2021/07/16 03:02:56;;;;;;;2.60;1.10;;;;;;;;;;1484689;40;20312;-61
2021/07/16 03:03:58;;;;;;;3.42;1.27;;;;;;;;;;1484833;40;20028;-61
2021/07/16 03:04:58;;;;;;;5.00;1.30;;;;;;;;;;1484558;40;20288;-61
2021/07/16 03:06:00;;;;;;;4.18;1.42;;;;;;;;;;1484669;40;20029;-61
2021/07/16 03:07:01;;;;;;;5.13;1.42;;;;;;;;;;1484731;40;20028;-61
2021/07/16 03:08:04;;;;;;;4.25;1.20;;;;;;;;;;1484725;40;20024;-61
2021/07/16 03:09:05;;;;;;;1.83;1.00;;;;;;;;;;1484548;40;20029;-61
2021/07/16 03:10:09;;;;;;;2.45;1.30;;;;;;;;;;1484725;40;20025;-61
2021/07/16 03:11:10;;;;;;;5.47;1.20;;;;;;;;;;1484642;40;20039;-61
2021/07/16 03:12:13;;;;;;;3.03;1.17;;;;;;;;;;1484630;40;20039;-61
2021/07/16 03:13:16;;;;;;;5.45;1.20;;;;;;;;;;1484704;40;20025;-61
2021/07/16 03:14:18;;;;;;;3.63;1.00;;;;;;;;;;1484735;40;20024;-61
2021/07/16 03:15:20;;;;;;;6.88;1.23;;;;;;;;;;1484522;40;20404;-61
2021/07/16 03:16:22;;;;;;;3.03;1.20;;;;;;;;;;1484795;40;20028;-61
2021/07/16 03:17:23;;;;;;;4.00;1.40;;;;;;;;;;1484544;40;20020;-61
2021/07/16 03:18:24;;;;;;;3.22;1.00;;;;;;;;;;1484968;40;20032;-61
2021/07/16 03:19:25;;;;;;;4.90;1.25;;;;;;;;;;1484633;40;20028;-61
2021/07/16 03:20:29;;;;;;;2.97;1.15;;;;;;;;;;1484591;40;20025;-61
2021/07/16 03:21:30;;;;;;;3.92;1.20;;;;;;;;;;1484673;40;20028;-61
2021/07/16 03:22:32;;;;;;;3.40;1.20;;;;;;;;;;1484733;40;20031;-61
2021/07/16 03:23:32;;;;;;;2.55;1.10;;;;;;;;;;1484698;40;20060;-61
2021/07/16 03:24:35;;;;;;;5.45;1.40;;;;;;;;;;1484823;40;20102;-61
2021/07/16 03:25:36;;;;;;;3.50;1.20;;;;;;;;;;1484578;40;20392;-61
2021/07/16 03:26:38;;;;;;;4.78;1.50;;;;;;;;;;1484463;40;20447;-61
2021/07/16 03:27:40;;;;;;;5.72;1.60;;;;;;;;;;1484617;40;20025;-61
2021/07/16 03:28:43;;;;;;;6.65;1.20;;;;;;;;;;1484539;40;20466;-61
2021/07/16 03:29:43;;;;;;;4.60;1.10;;;;;;;;;;1484529;40;20020;-61
2021/07/16 03:30:45;;;;;;;7.88;1.75;;;;;;;;;;1484606;40;20041;-62
2021/07/16 03:31:46;;;;;;;6.47;1.70;;;;;;;;;;1484476;40;20037;-61
2021/07/16 03:32:48;;;;;;;5.32;1.55;;;;;;;;;;1484646;40;20028;-61
2021/07/16 03:33:49;;;;;;;7.88;1.52;;;;;;;;;;1484044;40;20397;-61
2021/07/16 03:34:51;;;;;;;7.95;1.80;;;;;;;;;;1484049;40;20029;-61
2021/07/16 03:35:51;;;;;;;4.72;2.05;;;;;;;;;;1484535;40;20296;-61
2021/07/16 03:36:53;;;;;;;8.45;1.65;;;;;;;;;;1484763;40;20033;-61
2021/07/16 03:37:55;;;;;;;8.43;1.65;;;;;;;;;;1484665;40;20021;-61
2021/07/16 03:38:57;;;;;;;8.65;1.85;;;;;;;;;;1484553;40;20103;-61
2021/07/16 03:39:58;;;;;;;4.53;1.48;;;;;;;;;;1484482;40;20029;-61
2021/07/16 03:41:01;;;;;;;10.05;1.73;;;;;;;;;;1484518;40;20033;-60
2021/07/16 03:42:02;;;;;;;7.80;1.77;;;;;;;;;;1484515;40;20031;-61
2021/07/16 03:43:05;;;;;;;8.57;1.50;;;;;;;;;;1484743;40;20025;-61
2021/07/16 03:44:06;;;;;;;6.13;1.38;;;;;;;;;;1484474;40;20037;-61
2021/07/16 03:45:12;;;;;;;4.43;1.05;;;;;;;;;;1484547;40;20032;-61
2021/07/16 03:46:14;;;;;;;5.57;1.63;;;;;;;;;;1484657;40;20025;-61
2021/07/16 03:47:17;;;;;;;7.45;1.67;;;;;;;;;;1484535;40;20060;-61
2021/07/16 03:48:18;;;;;;;5.90;1.60;;;;;;;;;;1484505;40;20403;-61
2021/07/16 03:49:20;;;;;;;12.13;1.70;;;;;;;;;;1484587;40;20029;-61
2021/07/16 03:50:22;;;;;;;5.60;1.20;;;;;;;;;;1484497;40;20021;-61
2021/07/16 03:51:24;;;;;;;8.60;1.77;;;;;;;;;;1484479;40;20035;-61
2021/07/16 03:52:25;;;;;;;8.55;1.88;;;;;;;;;;1484458;40;20292;-60
2021/07/16 03:53:27;;;;;;;7.45;1.85;;;;;;;;;;1484859;40;20029;-61
2021/07/16 03:54:28;;;;;;;8.93;1.48;;;;;;;;;;1484461;40;20029;-61
2021/07/16 03:55:30;;;;;;;8.77;2.00;;;;;;;;;;1484584;40;20029;-61
2021/07/16 03:56:31;;;;;;;6.10;1.60;;;;;;;;;;1484504;40;20025;-62
2021/07/16 03:57:34;;;;;;;8.30;1.50;;;;;;;;;;1484521;40;20025;-60
2021/07/16 03:58:36;;;;;;;5.50;1.55;;;;;;;;;;1484624;40;20039;-61
2021/07/16 03:59:38;;;;;;;5.63;1.40;;;;;;;;;;1484630;40;20078;-60
2021/07/16 04:00:39;;;;;;;6.07;1.73;;;;;;;;;;1484409;40;20028;-61
2021/07/16 04:01:40;;;;;;;6.85;1.45;;;;;;;;;;1484822;40;20025;-62
2021/07/16 04:02:42;;;;;;;9.45;1.67;;;;;;;;;;1484315;40;20036;-61
2021/07/16 04:03:44;;;;;;;7.00;1.80;;;;;;;;;;1484620;40;20051;-60
2021/07/16 04:04:50;;;;;;;6.85;1.80;;;;;;;;;;1484559;40;20032;-61
2021/07/16 04:05:52;;;;;;;4.97;1.45;;;;;;;;;;1484598;40;20405;-61
2021/07/16 04:06:55;;;;;;;7.75;1.60;;;;;;;;;;1484558;40;20021;-61
2021/07/16 04:08:03;;;;;;;4.18;1.70;;;;;;;;;;1484462;40;20028;-61
2021/07/16 04:09:10;;;;;;;4.78;1.65;;;;;;;;;;1484494;40;20045;-61
2021/07/16 04:10:13;;;;;;;5.00;1.38;;;;;;;;;;1484620;40;20036;-61
2021/07/16 04:11:14;;;;;;;6.30;1.65;;;;;;;;;;1483758;40;20400;-61
2021/07/16 04:12:18;;;;;;;4.13;1.48;;;;;;;;;;1479806;40;20029;-61
2021/07/16 04:13:19;;;;;;;7.22;1.55;;;;;;;;;;1480015;40;20039;-61
2021/07/16 04:14:22;;;;;;;6.60;1.80;;;;;;;;;;1484139;40;20039;-61
2021/07/16 04:15:25;;;;;;;4.90;1.27;;;;;;;;;;1484383;40;20020;-61
2021/07/16 04:16:27;;;;;;;6.22;1.23;;;;;;;;;;1484416;40;20028;-61
2021/07/16 04:17:29;;;;;;;4.55;1.30;;;;;;;;;;1484431;40;20296;-61
2021/07/16 04:18:30;;;;;;;3.60;1.30;;;;;;;;;;1484544;40;20025;-61
2021/07/16 04:19:31;;;;;;;5.82;1.35;;;;;;;;;;1484380;40;20025;-60
2021/07/16 04:20:35;;;;;;;4.65;1.20;;;;;;;;;;1484556;40;20284;-61
2021/07/16 04:21:36;;;;;;;4.38;1.38;;;;;;;;;;1484624;40;20301;-61
2021/07/16 04:22:39;;;;;;;4.78;1.40;;;;;;;;;;1484507;40;20377;-61
2021/07/16 04:23:40;;;;;;;2.63;1.30;;;;;;;;;;1484452;40;20024;-61
2021/07/16 04:24:43;;;;;;;3.67;1.20;;;;;;;;;;1484604;40;20308;-61
2021/07/16 04:25:44;;;;;;;4.10;1.10;;;;;;;;;;1484497;40;20032;-61
2021/07/16 04:26:46;;;;;;;3.45;1.15;;;;;;;;;;1484560;40;20292;-61
2021/07/16 04:27:48;;;;;;;2.92;1.42;;;;;;;;;;1484318;40;20033;-61
2021/07/16 04:28:50;;;;;;;4.72;1.00;;;;;;;;;;1484405;40;20025;-61
2021/07/16 04:29:52;;;;;;;3.10;1.00;;;;;;;;;;1484442;40;20288;-61
2021/07/16 04:30:54;;;;;;;4.07;1.10;;;;;;;;;;1484562;40;20143;-61
2021/07/16 04:31:55;;;;;;;2.10;0.98;;;;;;;;;;1484371;40;20016;-61
2021/07/16 04:32:59;;;;;;;2.95;1.35;;;;;;;;;;1484717;40;20025;-60
2021/07/16 04:34:00;;;;;;;4.55;1.00;;;;;;;;;;1484315;40;20025;-61
2021/07/16 04:35:02;;;;;;;2.30;1.10;;;;;;;;;;1484476;40;20039;-61
2021/07/16 04:36:03;;;;;;;1.83;1.10;;;;;;;;;;1484450;40;20027;-61
2021/07/16 04:37:08;;;;;;;2.92;1.30;;;;;;;;;;1484466;40;20102;-62
2021/07/16 04:38:10;;;;;;;5.22;1.40;;;;;;;;;;1484476;40;20028;-61
2021/07/16 04:39:11;;;;;;;3.70;1.20;;;;;;;;;;1484312;40;20397;-61
2021/07/16 04:40:15;;;;;;;3.72;1.00;;;;;;;;;;1484572;40;20057;-61
2021/07/16 04:41:17;;;;;;;2.75;1.10;;;;;;;;;;1484518;40;20041;-61
2021/07/16 04:42:18;;;;;;;4.40;1.30;;;;;;;;;;1484366;40;20021;-61
2021/07/16 04:43:20;;;;;;;2.30;0.90;;;;;;;;;;1484439;40;20033;-61
2021/07/16 04:44:21;;;;;;;2.38;1.25;;;;;;;;;;1484312;40;20048;-61
2021/07/16 04:45:25;;;;;;;6.40;1.40;;;;;;;;;;1484525;40;20269;-61
2021/07/16 04:46:26;;;;;;;2.25;1.00;;;;;;;;;;1484475;40;20028;-61
2021/07/16 04:47:28;;;;;;;2.13;1.00;;;;;;;;;;1484449;40;20400;-61
2021/07/16 04:48:29;;;;;;;1.92;1.00;;;;;;;;;;1484295;40;20021;-61
2021/07/16 04:49:31;;;;;;;1.58;0.90;;;;;;;;;;1484339;40;20055;-61
2021/07/16 04:50:32;;;;;;;1.95;1.00;;;;;;;;;;1484323;40;20021;-60
2021/07/16 04:51:36;;;;;;;3.72;1.00;;;;;;;;;;1484369;40;20452;-61
2021/07/16 04:52:37;;;;;;;3.13;0.93;;;;;;;;;;1484252;40;20507;-61
2021/07/16 04:53:39;;;;;;;2.13;0.90;;;;;;;;;;1484517;40;20036;-61
2021/07/16 04:54:40;;;;;;;4.45;1.10;;;;;;;;;;1484246;40;20024;-61
2021/07/16 04:55:42;;;;;;;2.33;1.00;;;;;;;;;;1484435;40;20266;-61
2021/07/16 04:56:43;;;;;;;1.92;1.00;;;;;;;;;;1484243;40;20021;-61
2021/07/16 04:57:45;;;;;;;1.70;1.00;;;;;;;;;;1484399;40;20032;-61
2021/07/16 04:58:46;;;;;;;2.25;1.00;;;;;;;;;;1484451;40;20423;-61
2021/07/16 04:59:50;;;;;;;2.70;1.00;;;;;;;;;;1484323;40;20028;-61
2021/07/16 05:00:52;;;;;;;3.67;1.08;;;;;;;;;;1484330;40;20028;-61
2021/07/16 05:01:53;;;;;;;3.28;0.93;;;;;;;;;;1484513;40;20381;-61
2021/07/16 05:02:54;;;;;;;2.17;1.10;;;;;;;;;;1484338;40;20032;-61
2021/07/16 05:03:56;;;;;;;2.67;1.10;;;;;;;;;;1484336;40;20025;-62
2021/07/16 05:04:57;;;;;;;2.95;1.20;;;;;;;;;;1484278;40;20048;-61
2021/07/16 05:05:59;;;;;;;2.88;0.90;;;;;;;;;;1484365;40;20353;-62
2021/07/16 05:06:59;;;;;;;2.88;1.00;;;;;;;;;;1484330;40;20047;-61
2021/07/16 05:08:01;;;;;;;2.65;1.30;;;;;;;;;;1484405;40;20059;-62
2021/07/16 05:09:03;;;;;;;2.38;1.17;;;;;;;;;;1484340;40;20025;-62
2021/07/16 05:10:06;;;;;;;3.70;1.08;;;;;;;;;;1484365;40;20044;-61
2021/07/16 05:11:08;;;;;;;4.45;1.17;;;;;;;;;;1484252;40;20034;-61
2021/07/16 05:12:10;;;;;;;2.40;1.10;;;;;;;;;;1484353;40;20024;-61
2021/07/16 05:13:11;;;;;;;3.72;1.27;;;;;;;;;;1484271;40;20021;-62
2021/07/16 05:14:12;;;;;;;2.15;1.20;;;;;;;;;;1484288;40;20024;-62
2021/07/16 05:15:13;;;;;;;1.88;1.13;;;;;;;;;;1484883;40;20029;-62
2021/07/16 05:16:18;;;;;;;3.33;1.25;;;;;;;;;;1485070;40;20266;-62
2021/07/16 05:17:18;;;;;;;1.90;1.10;;;;;;;;;;1485005;40;20071;-62
2021/07/16 05:18:20;;;;;;;4.55;1.30;;;;;;;;;;1484897;40;20029;-61
2021/07/16 05:19:21;;;;;;;3.33;1.20;;;;;;;;;;1484856;40;20408;-61
2021/07/16 05:20:23;;;;;;;2.97;1.20;;;;;;;;;;1484963;40;20036;-62
2021/07/16 05:21:24;;;;;;;2.95;1.23;;;;;;;;;;1485061;40;20385;-61
2021/07/16 05:22:26;;;;;;;4.63;1.40;;;;;;;;;;1484913;40;20025;-61
2021/07/16 05:23:28;;;;;;;4.28;1.27;;;;;;;;;;1484859;40;20399;-61
2021/07/16 05:24:30;;;;;;;2.88;1.13;;;;;;;;;;1485100;40;20025;-62
2021/07/16 05:25:33;;;;;;;3.70;1.40;;;;;;;;;;1485135;40;20025;-62
2021/07/16 05:26:34;;;;;;;2.05;1.08;;;;;;;;;;1484901;40;20069;-61
2021/07/16 05:27:35;;;;;;;1.95;1.10;;;;;;;;;;1484863;40;20403;-61
2021/07/16 05:28:37;;;;;;;3.05;1.20;;;;;;;;;;1485027;40;20392;-62
2021/07/16 05:29:38;;;;;;;1.92;0.95;;;;;;;;;;1484978;40;20380;-62
2021/07/16 05:30:39;;;;;;;2.58;1.40;;;;;;;;;;1484815;40;20025;-61
2021/07/16 05:31:43;;;;;;;4.15;1.35;;;;;;;;;;1484902;40;20401;-62
2021/07/16 05:32:44;;;;;;;3.80;1.30;;;;;;;;;;1484915;40;20342;-61
2021/07/16 05:33:47;;;;;;;4.10;1.25;;;;;;;;;;1484877;40;20024;-61
2021/07/16 05:34:47;;;;;;;2.70;1.33;;;;;;;;;;1484802;40;20029;-61
2021/07/16 05:35:49;;;;;;;5.25;1.10;;;;;;;;;;1484965;40;20029;-61
2021/07/16 05:36:51;;;;;;;3.38;1.20;;;;;;;;;;1484806;40;20017;-62
2021/07/16 05:37:52;;;;;;;2.55;1.40;;;;;;;;;;1484860;40;20078;-62
2021/07/16 05:38:53;;;;;;;3.10;1.17;;;;;;;;;;1484936;40;20296;-61
2021/07/16 05:39:56;;;;;;;2.70;1.45;;;;;;;;;;1484989;40;20056;-61
2021/07/16 05:40:57;;;;;;;3.28;1.50;;;;;;;;;;1484910;40;20048;-62
2021/07/16 05:42:03;;;;;;;4.65;1.70;;;;;;;;;;1484931;40;20028;-62
2021/07/16 05:43:04;;;;;;;4.95;1.90;;;;;;;;;;1485051;40;20358;-62
2021/07/16 05:44:06;;;;;;;3.13;1.50;;;;;;;;;;1485018;40;20025;-62
2021/07/16 05:45:08;;;;;;;5.07;1.70;;;;;;;;;;1484883;40;20028;-61
2021/07/16 05:46:10;;;;;;;4.38;1.75;;;;;;;;;;1484860;40;20035;-61
2021/07/16 05:47:12;;;;;;;3.25;1.60;;;;;;;;;;1484788;40;20029;-61
2021/07/16 05:48:14;;;;;;;3.22;1.92;;;;;;;;;;1484955;40;20021;-62
2021/07/16 05:49:15;;;;;;;3.20;2.08;;;;;;;;;;1484891;40;20404;-62
2021/07/16 05:50:17;;;;;;;4.32;1.90;;;;;;;;;;1485103;40;20024;-61
2021/07/16 05:51:17;;;;;;;3.90;2.20;;;;;;;;;;1484694;40;20021;-62
2021/07/16 05:52:19;;;;;;;4.00;2.42;;;;;;;;;;1484846;40;20028;-61
2021/07/16 05:53:20;;;;;;;4.47;2.25;;;;;;;;;;1484260;40;20352;-62
2021/07/16 05:54:22;;;;;;;4.43;2.30;;;;;;;;;;1484411;40;20032;-61
2021/07/16 05:55:23;;;;;;;4.13;2.42;;;;;;;;;;1484846;40;20288;-62
2021/07/16 05:56:25;;;;;;;4.80;2.55;;;;;;;;;;1485012;40;20033;-61
2021/07/16 05:57:26;;;;;;;4.85;2.10;;;;;;;;;;1484809;40;20025;-62
2021/07/16 05:58:28;;;;;;;4.97;2.53;;;;;;;;;;1484820;40;20025;-62
2021/07/16 05:59:29;;;;;;;4.93;2.60;;;;;;;;;;1484743;40;20031;-62
2021/07/16 06:00:31;;;;;;;3.47;2.20;;;;;;;;;;1484831;40;20400;-61
2021/07/16 06:01:32;;;;;;;5.03;2.40;;;;;;;;;;1484816;40;20073;-61
2021/07/16 06:02:35;;;;;;;4.68;2.25;;;;;;;;;;1484724;40;20029;-62
2021/07/16 06:03:36;;;;;;;4.90;2.08;;;;;;;;;;1484847;40;20296;-62
2021/07/16 06:04:38;;;;;;;4.18;2.20;;;;;;;;;;1484908;40;20025;-62
2021/07/16 06:05:39;;;;;;;6.25;2.10;;;;;;;;;;1484927;40;20025;-61
2021/07/16 06:06:41;;;;;;;4.47;2.40;;;;;;;;;;1484888;40;20296;-62
2021/07/16 06:07:44;;;;;;;5.00;2.15;;;;;;;;;;1484728;40;20296;-62
2021/07/16 06:08:46;;;;;;;3.55;1.95;;;;;;;;;;1484867;40;20354;-62
2021/07/16 06:09:47;;;;;;;5.95;2.00;;;;;;;;;;1484755;40;20147;-62
2021/07/16 06:10:49;;;;;;;4.63;2.22;;;;;;;;;;1484677;40;20392;-62
2021/07/16 06:11:49;;;;;;;3.20;2.17;;;;;;;;;;1484244;40;20028;-61